createdAt,value
2022-12-12T00:12:23.282Z,4432.26363
2022-12-12T00:27:25.657Z,4367.28446
2022-12-12T00:42:27.934Z,4484.94504
2022-12-12T00:57:30.122Z,4594.15636
2022-12-12T01:12:32.347Z,4553.50011
2022-12-12T01:27:34.567Z,4397.82491
2022-12-12T01:42:36.765Z,4428.7955
2022-12-12T01:57:38.995Z,4428.7955
2022-12-12T02:12:41.249Z,4377.41737
2022-12-12T02:27:43.440Z,4284.63336
2022-12-12T02:42:45.678Z,4347.15873
2022-12-12T02:57:47.935Z,4425.3328
2022-12-12T03:12:50.162Z,4535.25692
2022-12-12T03:27:52.358Z,4609.12104
2022-12-12T03:42:54.576Z,4804.75434
2022-12-12T03:57:57.105Z,4538.89386
2022-12-12T04:12:59.792Z,4401.24468
2022-12-12T04:28:03.212Z,4307.45865
2022-12-12T04:43:05.489Z,3997.17564
2022-12-12T04:58:07.730Z,4069.0156
2022-12-12T05:13:09.925Z,3958.04246
2022-12-12T05:28:12.939Z,4140.45405
2022-12-12T05:43:15.309Z,4236.52745
2022-12-12T05:58:17.542Z,4239.70088
2022-12-12T06:13:19.751Z,4268.47713
2022-12-12T06:28:21.937Z,4271.69862
2022-12-12T06:43:24.141Z,4327.21763
2022-12-12T06:58:26.455Z,4278.15621
2022-12-12T07:13:28.639Z,4425.3328
2022-12-12T07:28:30.961Z,4467.24597
2022-12-12T07:43:35.290Z,4246.06202
2022-12-12T07:58:39.516Z,4034.2129
2022-12-12T08:13:41.900Z,4122.3603
2022-12-12T08:28:44.161Z,4164.82758
2022-12-12T08:43:46.375Z,4113.3726
2022-12-12T08:58:48.622Z,4174.0418
2022-12-12T09:13:50.848Z,4069.0156
2022-12-12T09:28:53.080Z,3874.05936
2022-12-12T09:43:55.279Z,4095.51425
2022-12-12T09:58:57.656Z,4211.31003
2022-12-12T10:13:59.892Z,4397.82491
2022-12-12T10:29:02.246Z,4677.68647
2022-12-12T10:44:04.525Z,4669.96751
2022-12-12T10:59:06.942Z,4620.40868
2022-12-12T11:14:09.153Z,4571.89066
2022-12-12T11:29:11.401Z,4612.87745
2022-12-12T11:44:18.626Z,4768.32402
2022-12-12T11:59:22.455Z,4866.72451
2022-12-12T12:14:24.676Z,4854.20292
2022-12-12T12:29:26.919Z,5168.9503
2022-12-12T12:44:29.076Z,5154.82749
2022-12-12T12:59:31.325Z,5231.05414
2022-12-12T13:14:33.547Z,5400.7639
2022-12-12T13:29:35.738Z,5489.81626
2022-12-12T13:44:37.957Z,5426.65442
2022-12-12T13:59:40.169Z,5411.09041
2022-12-12T14:14:42.401Z,5581.85459
2022-12-12T14:29:44.589Z,5871.36985
2022-12-12T14:44:50.673Z,5847.108
2022-12-12T14:59:53.221Z,5769.62339
2022-12-12T15:14:55.391Z,6145.4945
2022-12-12T15:29:57.630Z,5763.74801
2022-12-12T15:45:00.051Z,5576.35523
2022-12-12T16:00:02.392Z,5532.74737
2022-12-12T16:15:04.839Z,5554.46571
2022-12-12T16:30:07.097Z,5637.45075
2022-12-12T16:45:09.514Z,5615.07991
2022-12-12T17:00:12.045Z,5626.24309
2022-12-12T17:15:14.545Z,5463.32101
2022-12-12T17:30:17.089Z,5592.88592
2022-12-12T17:45:19.580Z,5688.44276
2022-12-12T18:00:21.856Z,5637.45075
2022-12-12T18:15:24.208Z,5442.30823
2022-12-12T18:30:26.421Z,5289.72016
2022-12-12T18:45:28.818Z,5370.01951
2022-12-12T19:00:31.080Z,5565.38894
2022-12-12T19:15:33.472Z,5871.36985
2022-12-12T19:30:35.846Z,6424.51807
2022-12-12T19:45:38.088Z,6569.93663
2022-12-12T20:00:40.327Z,6873.10309
2022-12-12T20:15:42.726Z,7083.8553
2022-12-12T20:30:47.638Z,7242.48289
2022-12-12T20:45:51.837Z,7088.29103
2022-12-12T21:00:54.113Z,7150.97964
2022-12-12T21:15:56.361Z,6957.59114
2022-12-12T21:30:58.676Z,6827.50349
2022-12-12T21:46:01.006Z,6827.50349
2022-12-12T22:01:03.197Z,6662.74327
2022-12-12T22:16:05.574Z,6754.17709
2022-12-12T22:31:07.888Z,7228.6084
2022-12-12T22:46:10.181Z,7182.7416
2022-12-12T23:01:12.448Z,7326.86133
2022-12-12T23:16:14.802Z,7592.22048
2022-12-12T23:31:17.122Z,7233.22732
2022-12-12T23:46:19.542Z,6435.47517
